Time;durP1;ratioP1;P1;durP2;ratioP2;P2;SDS_P1;SDS_P2;PMS_P1;PMS_P2;Temp;Humidity;BMP_temperature;BMP_pressure;BME280_temperature;BME280_humidity;BME280_pressure;Samples;Min_cycle;Max_cycle;Signal;HPM_P1;HPM_P2
2022/05/26 00:01:40;;;;;;;;;;;;;;;12.68;59.57;96966.88;5056053;28;20326;-78
2022/05/26 00:04:05;;;;;;;;;;;;;;;12.66;59.75;96980.28;5055874;28;19948;-78
2022/05/26 00:06:32;;;;;;;;;;;;;;;12.65;59.95;96980.50;5055722;28;19969;-78
2022/05/26 00:08:58;;;;;;;;;;;;;;;12.65;60.52;96986.56;5056129;28;19958;-78
2022/05/26 00:11:26;;;;;;;;;;;;;;;12.63;60.73;96982.53;5055819;28;20004;-78
2022/05/26 00:13:53;;;;;;;;;;;;;;;12.61;60.20;96982.75;5055797;28;20453;-78
2022/05/26 00:16:19;;;;;;;;;;;;;;;12.58;60.72;96978.72;5055615;28;19957;-78
2022/05/26 00:18:45;;;;;;;;;;;;;;;12.58;60.37;96977.94;5055765;28;20424;-77
2022/05/26 00:21:11;;;;;;;;;;;;;;;12.56;60.74;96975.50;5055721;28;19960;-78
2022/05/26 00:23:36;;;;;;;;;;;;;;;12.56;60.84;96979.97;5055798;28;19967;-79
2022/05/26 00:26:03;;;;;;;;;;;;;;;12.54;60.72;96977.56;5037629;28;20394;-78
2022/05/26 00:28:30;;;;;;;;;;;;;;;12.52;60.68;96970.91;5054451;28;19968;-78
2022/05/26 00:30:56;;;;;;;;;;;;;;;12.51;61.32;96987.69;5055475;28;19977;-78
2022/05/26 00:33:21;;;;;;;;;;;;;;;12.50;61.16;96980.84;5055535;28;20441;-79
2022/05/26 00:35:47;;;;;;;;;;;;;;;12.48;61.12;96980.25;5055524;28;20133;-78
2022/05/26 00:38:14;;;;;;;;;;;;;;;12.47;61.73;96986.50;5054730;28;19962;-78
2022/05/26 00:40:41;;;;;;;;;;;;;;;12.45;62.10;96984.13;5055262;28;20350;-78
2022/05/26 00:43:07;;;;;;;;;;;;;;;12.44;61.53;96979.88;5055327;28;19954;-78
2022/05/26 00:45:37;;;;;;;;;;;;;;;12.40;61.70;96986.56;5055172;28;20425;-78
2022/05/26 00:48:09;;;;;;;;;;;;;;;12.36;61.52;96973.03;5054914;28;19968;-78
2022/05/26 00:50:41;;;;;;;;;;;;;;;12.36;61.19;96980.13;5055126;28;19947;-78
2022/05/26 00:53:21;;;;;;;;;;;;;;;12.32;61.76;96974.50;5055287;28;19957;-78
2022/05/26 00:55:55;;;;;;;;;;;;;;;12.29;61.71;96969.69;5054371;28;19954;-78
2022/05/26 00:58:28;;;;;;;;;;;;;;;12.28;61.43;96962.00;5054778;28;19954;-78
2022/05/26 01:00:55;;;;;;;;;;;;;;;12.26;61.59;96977.97;5055038;28;19953;-77
2022/05/26 01:03:33;;;;;;;;;;;;;;;12.25;61.62;96970.34;5054906;28;19958;-78
2022/05/26 01:05:59;;;;;;;;;;;;;;;12.23;61.76;96967.13;5040175;28;19951;-78
2022/05/26 01:08:32;;;;;;;;;;;;;;;12.23;61.79;96975.78;5055001;28;19968;-78
2022/05/26 01:10:58;;;;;;;;;;;;;;;12.23;60.73;96970.53;5055090;28;19993;-78
2022/05/26 01:13:24;;;;;;;;;;;;;;;12.20;62.41;96968.34;5054540;28;19969;-78
2022/05/26 01:15:57;;;;;;;;;;;;;;;12.18;62.10;96963.31;5054655;28;19963;-78
2022/05/26 01:18:37;;;;;;;;;;;;;;;12.19;62.24;96964.09;5054661;28;19961;-78
2022/05/26 01:21:02;;;;;;;;;;;;;;;12.17;62.02;96960.88;5054613;28;19959;-78
2022/05/26 01:23:31;;;;;;;;;;;;;;;12.14;61.91;96964.75;5054429;28;19950;-77
2022/05/26 01:26:03;;;;;;;;;;;;;;;12.10;62.14;96965.41;5054306;28;19989;-77
2022/05/26 01:28:29;;;;;;;;;;;;;;;12.06;63.26;96967.63;5053585;28;19964;-77
2022/05/26 01:30:57;;;;;;;;;;;;;;;12.05;63.52;96970.47;5054141;28;20466;-78
2022/05/26 01:33:29;;;;;;;;;;;;;;;12.04;62.90;96968.88;5054341;28;20329;-78
2022/05/26 01:36:04;;;;;;;;;;;;;;;12.05;62.48;96962.59;5047002;28;19947;-78
2022/05/26 01:38:57;;;;;;;;;;;;;;;12.06;62.48;96966.84;5054115;28;20314;-78
2022/05/26 01:41:28;;;;;;;;;;;;;;;12.06;62.62;96961.59;5013236;28;19969;-77
2022/05/26 01:43:57;;;;;;;;;;;;;;;12.06;62.58;96969.47;5054167;28;20435;-77
2022/05/26 01:46:39;;;;;;;;;;;;;;;12.06;62.70;96972.91;5054145;28;19947;-78
2022/05/26 01:49:23;;;;;;;;;;;;;;;12.06;62.45;96969.47;5053517;28;19969;-77
2022/05/26 01:51:49;;;;;;;;;;;;;;;12.04;62.51;96971.50;5053759;28;19961;-78
2022/05/26 01:54:21;;;;;;;;;;;;;;;12.01;63.01;96983.25;5054340;28;19952;-78
2022/05/26 01:56:51;;;;;;;;;;;;;;;11.97;62.46;96972.38;5045664;28;19951;-77
2022/05/26 01:59:27;;;;;;;;;;;;;;;11.93;63.05;96976.44;5053896;28;19963;-78
2022/05/26 02:01:56;;;;;;;;;;;;;;;11.91;63.08;96975.84;5054098;28;19951;-78
2022/05/26 02:04:28;;;;;;;;;;;;;;;11.89;63.18;96977.88;5035932;28;20346;-78
2022/05/26 02:07:04;;;;;;;;;;;;;;;11.87;63.11;96971.19;5053725;28;19973;-77
2022/05/26 02:09:38;;;;;;;;;;;;;;;11.84;62.90;96967.16;5053562;28;19951;-77
2022/05/26 02:12:36;;;;;;;;;;;;;;;11.80;62.85;96966.00;5052939;28;20460;-78
2022/05/26 02:15:06;;;;;;;;;;;;;;;11.77;63.32;96976.91;5001649;28;19955;-78
2022/05/26 02:17:34;;;;;;;;;;;;;;;11.75;63.28;96974.50;5053684;28;20345;-78
2022/05/26 02:20:30;;;;;;;;;;;;;;;11.75;63.32;96973.69;5053576;28;19944;-77
2022/05/26 02:23:04;;;;;;;;;;;;;;;11.72;63.53;96972.28;5040674;28;19961;-78
2022/05/26 02:25:30;;;;;;;;;;;;;;;11.71;63.03;96969.88;5041262;28;19952;-78
2022/05/26 02:27:57;;;;;;;;;;;;;;;11.71;63.72;96980.38;5053330;28;20066;-77
2022/05/26 02:30:26;;;;;;;;;;;;;;;11.68;63.81;96972.94;5053088;28;19957;-78
2022/05/26 02:32:53;;;;;;;;;;;;;;;11.66;63.98;96974.97;5053460;28;19967;-78
2022/05/26 02:35:24;;;;;;;;;;;;;;;11.60;65.01;96987.13;5053529;28;19953;-77
2022/05/26 02:37:52;;;;;;;;;;;;;;;11.54;64.35;96985.34;5053297;28;20402;-77
2022/05/26 02:40:18;;;;;;;;;;;;;;;11.50;64.27;96978.88;5053302;28;19963;-78
2022/05/26 02:42:55;;;;;;;;;;;;;;;11.47;64.03;96977.50;5053231;28;20434;-78
2022/05/26 02:45:41;;;;;;;;;;;;;;;11.47;64.45;96985.38;5053573;28;19969;-78
2022/05/26 02:48:26;;;;;;;;;;;;;;;11.46;64.63;96985.56;5022061;28;19979;-77
2022/05/26 02:50:59;;;;;;;;;;;;;;;11.43;65.06;96984.19;5053611;28;19953;-77
2022/05/26 02:53:30;;;;;;;;;;;;;;;11.40;64.85;96984.59;5053269;28;19960;-78
2022/05/26 02:55:56;;;;;;;;;;;;;;;11.36;64.41;96976.34;5053437;28;19961;-77
2022/05/26 02:58:51;;;;;;;;;;;;;;;11.34;64.62;96988.06;5053321;28;19952;-78
2022/05/26 03:01:28;;;;;;;;;;;;;;;11.30;64.59;96985.06;5039988;28;19958;-77
2022/05/26 03:04:03;;;;;;;;;;;;;;;11.31;64.68;96986.66;5053610;28;19952;-77
2022/05/26 03:06:33;;;;;;;;;;;;;;;11.29;64.91;96986.03;5052988;28;20317;-77
2022/05/26 03:09:00;;;;;;;;;;;;;;;11.27;64.88;96982.81;5052894;28;19967;-77
2022/05/26 03:11:29;;;;;;;;;;;;;;;11.25;65.11;96987.47;5052719;28;19993;-77
2022/05/26 03:13:55;;;;;;;;;;;;;;;11.26;64.81;96983.06;5052968;28;19953;-77
2022/05/26 03:16:21;;;;;;;;;;;;;;;11.23;65.43;96988.72;5052641;28;19960;-77
2022/05/26 03:18:47;;;;;;;;;;;;;;;11.22;65.79;96984.47;5052962;28;19983;-78
2022/05/26 03:21:13;;;;;;;;;;;;;;;11.20;65.36;96981.25;5053094;28;20410;-77
2022/05/26 03:23:39;;;;;;;;;;;;;;;11.15;65.57;96984.50;5054929;28;19949;-77
2022/05/26 03:26:06;;;;;;;;;;;;;;;11.11;65.60;96983.31;5056968;28;19965;-77
2022/05/26 03:28:32;;;;;;;;;;;;;;;11.06;65.46;96988.38;5056640;28;19975;-77
2022/05/26 03:30:58;;;;;;;;;;;;;;;11.02;65.90;96993.22;5056506;28;19958;-77
2022/05/26 03:33:24;;;;;;;;;;;;;;;10.99;65.57;96990.22;5056707;28;20389;-77
2022/05/26 03:41:21;;;;;;;;;;;;;;;10.88;66.03;96997.72;5056609;28;19953;-77
2022/05/26 03:43:49;;;;;;;;;;;;;;;10.85;66.21;97000.72;5056302;28;20428;-77
2022/05/26 03:46:15;;;;;;;;;;;;;;;10.83;66.07;97004.56;5056340;28;19960;-78
2022/05/26 03:48:41;;;;;;;;;;;;;;;10.81;66.50;97003.97;5056046;28;19979;-78
2022/05/26 03:51:07;;;;;;;;;;;;;;;10.79;66.48;97001.56;5056114;28;20415;-78
2022/05/26 03:53:34;;;;;;;;;;;;;;;10.78;66.81;97007.81;5056090;28;20331;-78
2022/05/26 03:56:00;;;;;;;;;;;;;;;10.74;66.74;97009.25;5056447;28;19959;-77
2022/05/26 03:58:26;;;;;;;;;;;;;;;10.76;66.93;97009.84;5056136;28;19950;-77
2022/05/26 04:00:52;;;;;;;;;;;;;;;10.75;67.10;97003.81;5056047;28;20432;-78
2022/05/26 04:03:18;;;;;;;;;;;;;;;10.77;66.96;97014.06;5056207;28;19952;-77
2022/05/26 04:05:44;;;;;;;;;;;;;;;10.76;66.64;97013.25;5055843;28;20323;-77
2022/05/26 04:08:10;;;;;;;;;;;;;;;10.76;67.17;97025.59;5056094;28;19971;-77
2022/05/26 04:10:37;;;;;;;;;;;;;;;10.74;67.05;97017.13;5055490;28;19991;-78
2022/05/26 04:13:03;;;;;;;;;;;;;;;10.73;68.04;97023.34;5055928;28;19955;-77
2022/05/26 04:15:29;;;;;;;;;;;;;;;10.74;67.65;97024.97;5055544;28;20328;-77
2022/05/26 04:17:55;;;;;;;;;;;;;;;10.78;67.68;97028.81;5055731;28;19996;-78
2022/05/26 04:20:22;;;;;;;;;;;;;;;10.84;67.38;97032.44;5055846;28;20333;-77
2022/05/26 04:22:48;;;;;;;;;;;;;;;10.91;67.18;97033.22;5055495;28;19971;-77
2022/05/26 04:25:14;;;;;;;;;;;;;;;11.00;67.16;97029.34;5055455;28;19946;-77
2022/05/26 04:27:40;;;;;;;;;;;;;;;11.10;67.22;97031.56;5055468;28;20320;-77
2022/05/26 04:30:08;;;;;;;;;;;;;;;11.18;66.60;97026.88;5055559;28;19950;-78
2022/05/26 04:32:34;;;;;;;;;;;;;;;11.32;67.24;97034.75;5055685;28;20316;-78
2022/05/26 04:35:00;;;;;;;;;;;;;;;11.44;66.81;97043.56;5055075;28;19975;-77
2022/05/26 04:37:26;;;;;;;;;;;;;;;11.61;66.93;97043.09;5055224;28;19951;-77
2022/05/26 04:39:55;;;;;;;;;;;;;;;11.76;67.12;97049.69;5055424;28;20323;-78
2022/05/26 04:42:22;;;;;;;;;;;;;;;11.93;65.69;97034.25;5055147;28;19966;-78
2022/05/26 04:44:49;;;;;;;;;;;;;;;12.09;64.82;97029.50;5055341;28;20336;-78
2022/05/26 04:47:15;;;;;;;;;;;;;;;12.27;64.62;97031.41;5055319;28;19964;-78
2022/05/26 04:49:41;;;;;;;;;;;;;;;12.45;64.59;97033.28;5055224;28;19953;-78
2022/05/26 04:52:08;;;;;;;;;;;;;;;12.68;63.72;97030.03;5055129;28;19985;-78
2022/05/26 04:54:38;;;;;;;;;;;;;;;12.95;64.02;97034.03;5054896;28;19947;-78
2022/05/26 04:57:05;;;;;;;;;;;;;;;13.25;63.17;97020.16;5054622;28;20416;-78
2022/05/26 04:59:31;;;;;;;;;;;;;;;13.57;62.19;97012.09;5055145;28;19956;-78
2022/05/26 05:01:57;;;;;;;;;;;;;;;13.88;61.62;96999.69;5054843;28;19952;-78
2022/05/26 05:04:26;;;;;;;;;;;;;;;14.20;60.85;97000.25;5054839;28;20003;-78
2022/05/26 05:06:52;;;;;;;;;;;;;;;14.50;60.12;96994.88;5054802;28;19967;-78
2022/05/26 05:09:18;;;;;;;;;;;;;;;14.80;59.62;96993.97;5054301;28;19973;-78
2022/05/26 05:11:44;;;;;;;;;;;;;;;15.08;59.20;96997.75;5053400;28;20436;-78
2022/05/26 05:14:11;;;;;;;;;;;;;;;15.34;57.76;96975.25;5054708;28;19970;-78
2022/05/26 05:16:42;;;;;;;;;;;;;;;15.45;57.57;96973.63;5054865;28;19959;-78
2022/05/26 05:19:08;;;;;;;;;;;;;;;15.57;57.14;96974.38;5054718;28;19959;-78
2022/05/26 05:21:38;;;;;;;;;;;;;;;15.79;57.35;96982.44;5054701;28;19955;-78
2022/05/26 05:24:08;;;;;;;;;;;;;;;16.06;56.19;96974.72;5054395;28;19966;-79
2022/05/26 05:26:37;;;;;;;;;;;;;;;16.34;55.97;96973.84;5054641;28;19959;-78
2022/05/26 05:29:07;;;;;;;;;;;;;;;16.62;55.07;96964.97;5054330;28;19965;-78
2022/05/26 05:31:36;;;;;;;;;;;;;;;16.74;54.01;96959.59;5054242;28;19952;-79
2022/05/26 05:34:05;;;;;;;;;;;;;;;16.90;54.76;96970.41;5054320;28;19964;-78
2022/05/26 05:36:33;;;;;;;;;;;;;;;17.10;54.39;96970.69;5054252;28;19954;-79
2022/05/26 05:38:59;;;;;;;;;;;;;;;17.29;53.09;96955.25;5054329;28;19949;-79
2022/05/26 05:41:26;;;;;;;;;;;;;;;17.31;53.04;96957.66;5054164;28;20342;-79
2022/05/26 05:43:52;;;;;;;;;;;;;;;17.15;51.58;96959.31;5054182;28;19958;-78
2022/05/26 05:46:21;;;;;;;;;;;;;;;17.17;52.58;96976.56;5053206;28;19942;-78
2022/05/26 05:48:47;;;;;;;;;;;;;;;17.27;52.17;96975.13;5053925;28;19966;-78
2022/05/26 05:51:14;;;;;;;;;;;;;;;17.39;52.51;96981.88;5053994;28;20433;-79
2022/05/26 05:53:40;;;;;;;;;;;;;;;17.45;52.42;96990.72;5052546;28;19959;-79
2022/05/26 05:56:06;;;;;;;;;;;;;;;17.68;52.65;96989.63;5053985;28;19968;-79
2022/05/26 05:58:32;;;;;;;;;;;;;;;17.87;51.76;96981.31;5053726;28;19985;-79
2022/05/26 06:00:58;;;;;;;;;;;;;;;17.97;51.56;97002.66;5053836;28;19976;-79
2022/05/26 06:03:30;;;;;;;;;;;;;;;18.00;50.36;96992.34;5052444;28;20499;-79
2022/05/26 06:05:58;;;;;;;;;;;;;;;18.10;51.50;97012.06;5053670;28;19960;-79
2022/05/26 06:08:24;;;;;;;;;;;;;;;18.24;51.74;97018.56;5053681;28;19973;-79
2022/05/26 06:10:50;;;;;;;;;;;;;;;18.49;50.95;97009.19;5053340;28;19976;-79
2022/05/26 06:13:16;;;;;;;;;;;;;;;18.49;50.20;97011.84;5053579;28;19959;-79
2022/05/26 06:15:46;;;;;;;;;;;;;;;18.46;50.14;97015.81;5053573;28;19962;-79
2022/05/26 06:18:16;;;;;;;;;;;;;;;18.56;50.10;97015.09;5053613;28;19957;-79
2022/05/26 06:20:42;;;;;;;;;;;;;;;18.71;51.05;97023.19;5053523;28;20462;-79
2022/05/26 06:23:08;;;;;;;;;;;;;;;18.64;49.45;97015.41;5052226;28;19960;-79
2022/05/26 06:25:34;;;;;;;;;;;;;;;18.38;50.64;97024.25;5053807;28;19962;-79
2022/05/26 06:30:45;;;;;;;;;;;;;;;17.96;51.15;97033.72;5053661;28;19953;-79
2022/05/26 06:38:41;;;;;;;;;;;;;;;17.31;52.42;97048.59;5053323;28;19958;-78
2022/05/26 06:43:53;;;;;;;;;;;;;;;16.98;51.80;97038.88;5054205;28;19956;-78
2022/05/26 06:46:19;;;;;;;;;;;;;;;16.90;51.92;97045.38;5053623;28;19972;-78
2022/05/26 06:48:45;;;;;;;;;;;;;;;16.93;52.37;97057.38;5053302;28;20321;-78
2022/05/26 06:51:12;;;;;;;;;;;;;;;17.18;51.35;97041.81;5053436;28;19947;-79
2022/05/26 06:53:38;;;;;;;;;;;;;;;17.35;51.27;97049.72;5053421;28;19957;-79
2022/05/26 06:56:05;;;;;;;;;;;;;;;17.40;51.41;97041.00;5053027;28;19972;-79
2022/05/26 06:58:31;;;;;;;;;;;;;;;17.39;50.47;97042.88;5057108;28;19976;-79
2022/05/26 07:00:57;;;;;;;;;;;;;;;17.34;52.24;97056.03;5057262;28;19954;-78
2022/05/26 07:03:23;;;;;;;;;;;;;;;17.25;51.14;97058.31;5056996;28;19943;-78
2022/05/26 07:05:50;;;;;;;;;;;;;;;17.14;51.89;97071.69;5057173;28;19966;-79
2022/05/26 07:08:17;;;;;;;;;;;;;;;17.04;51.41;97067.84;5057084;28;19975;-79
2022/05/26 07:10:45;;;;;;;;;;;;;;;16.96;51.93;97072.75;5056747;28;19972;-79
2022/05/26 07:13:10;;;;;;;;;;;;;;;16.92;51.21;97069.78;5056840;28;20338;-79
2022/05/26 07:15:36;;;;;;;;;;;;;;;16.89;52.07;97082.75;5056981;28;19961;-79
2022/05/26 07:18:03;;;;;;;;;;;;;;;16.91;52.59;97083.31;5056747;28;19999;-79
2022/05/26 07:20:29;;;;;;;;;;;;;;;16.89;52.20;97080.09;5056827;28;19949;-79
2022/05/26 07:22:56;;;;;;;;;;;;;;;16.85;51.92;97069.16;5056610;28;20408;-79
2022/05/26 07:25:22;;;;;;;;;;;;;;;16.80;50.75;97074.38;5057343;28;19954;-78
2022/05/26 07:27:48;;;;;;;;;;;;;;;16.77;50.75;97074.84;5055974;28;19963;-79
2022/05/26 07:30:14;;;;;;;;;;;;;;;16.77;51.18;97080.94;5056930;28;19995;-79
2022/05/26 07:32:40;;;;;;;;;;;;;;;16.79;51.12;97075.41;5056578;28;20057;-78
2022/05/26 07:35:06;;;;;;;;;;;;;;;16.80;51.16;97077.03;5056551;28;20006;-79
2022/05/26 07:43:04;;;;;;;;;;;;;;;17.04;51.94;97096.19;5056474;28;19965;-79
2022/05/26 07:45:35;;;;;;;;;;;;;;;17.38;50.19;97067.75;5056146;28;19966;-79
2022/05/26 07:48:01;;;;;;;;;;;;;;;17.60;49.77;97072.28;5055993;28;19956;-79
2022/05/26 07:50:33;;;;;;;;;;;;;;;17.73;49.50;97069.25;5056352;28;19978;-78
2022/05/26 07:53:34;;;;;;;;;;;;;;;17.92;48.37;97061.78;5055989;28;19956;-79
2022/05/26 07:56:02;;;;;;;;;;;;;;;18.09;48.73;97069.66;5056148;28;20319;-80
2022/05/26 07:58:47;;;;;;;;;;;;;;;18.32;48.49;97067.75;5057734;28;20321;-78
2022/05/26 08:01:13;;;;;;;;;;;;;;;18.37;49.10;97079.22;5055904;28;19958;-79
2022/05/26 08:03:39;;;;;;;;;;;;;;;18.39;47.45;97076.31;5056134;28;19955;-79
2022/05/26 08:06:06;;;;;;;;;;;;;;;18.45;47.33;97072.63;5056063;28;19952;-79
2022/05/26 08:08:32;;;;;;;;;;;;;;;18.52;47.37;97080.41;5036691;28;19972;-79
2022/05/26 08:10:58;;;;;;;;;;;;;;;18.63;47.33;97084.75;5055617;28;19975;-78
2022/05/26 08:13:24;;;;;;;;;;;;;;;18.61;47.64;97078.91;5056072;28;19964;-79
2022/05/26 08:15:50;;;;;;;;;;;;;;;18.52;47.15;97098.97;5055630;28;20437;-79
2022/05/26 08:18:16;;;;;;;;;;;;;;;18.55;46.85;97095.84;5055930;28;19957;-78
2022/05/26 08:20:42;;;;;;;;;;;;;;;18.63;47.15;97095.38;5055578;28;20049;-79
2022/05/26 08:23:08;;;;;;;;;;;;;;;18.67;46.76;97094.63;5055573;28;20397;-79
2022/05/26 08:25:34;;;;;;;;;;;;;;;18.63;46.53;97098.81;5055703;28;20005;-79
2022/05/26 08:28:06;;;;;;;;;;;;;;;18.60;46.93;97106.50;5055722;28;19964;-79
2022/05/26 08:30:32;;;;;;;;;;;;;;;18.56;46.89;97108.06;5055615;28;19947;-79
2022/05/26 08:32:58;;;;;;;;;;;;;;;18.44;47.42;97124.97;5055635;28;19954;-78
2022/05/26 08:35:24;;;;;;;;;;;;;;;18.30;47.33;97122.97;5055430;28;20077;-79
2022/05/26 08:37:50;;;;;;;;;;;;;;;18.16;46.56;97115.38;5037599;28;19970;-78
2022/05/26 08:40:39;;;;;;;;;;;;;;;18.15;47.42;97129.72;5055150;28;19979;-79
2022/05/26 08:43:08;;;;;;;;;;;;;;;18.12;48.07;97132.06;5046976;28;19961;-79
2022/05/26 08:45:38;;;;;;;;;;;;;;;18.10;48.33;97134.16;5055277;28;19958;-79
2022/05/26 08:48:04;;;;;;;;;;;;;;;18.07;47.65;97124.06;5054840;28;20032;-76
2022/05/26 08:50:33;;;;;;;;;;;;;;;18.04;48.25;97120.84;5054886;28;19949;-77
2022/05/26 08:53:02;;;;;;;;;;;;;;;18.04;47.96;97120.06;5054809;28;20405;-78
2022/05/26 08:55:28;;;;;;;;;;;;;;;18.12;48.45;97127.56;5055269;28;19946;-77
2022/05/26 08:58:17;;;;;;;;;;;;;;;18.24;48.00;97125.56;5054782;28;19953;-78
2022/05/26 09:00:57;;;;;;;;;;;;;;;18.39;48.97;97132.88;5051923;28;19966;-78
2022/05/26 09:03:23;;;;;;;;;;;;;;;18.55;48.56;97125.06;5054859;28;20408;-77
2022/05/26 09:05:52;;;;;;;;;;;;;;;18.70;47.35;97116.41;5054877;28;19953;-77
2022/05/26 09:13:58;;;;;;;;;;;;;;;18.89;47.25;97127.50;5054828;28;19968;-77
2022/05/26 09:16:31;;;;;;;;;;;;;;;18.88;47.64;97136.50;5054993;28;19957;-77
2022/05/26 09:19:19;;;;;;;;;;;;;;;18.83;47.36;97135.41;5054577;28;19957;-77
2022/05/26 09:21:46;;;;;;;;;;;;;;;18.81;47.67;97142.81;5054312;28;19954;-78
2022/05/26 09:24:15;;;;;;;;;;;;;;;18.75;47.19;97143.84;5054735;28;19956;-77
2022/05/26 09:26:44;;;;;;;;;;;;;;;18.66;46.88;97130.19;5054578;28;20319;-77
2022/05/26 09:29:11;;;;;;;;;;;;;;;18.66;47.90;97142.69;5054575;28;20351;-77
2022/05/26 09:31:44;;;;;;;;;;;;;;;18.68;48.57;97159.16;5054264;28;19961;-77
2022/05/26 09:34:24;;;;;;;;;;;;;;;18.69;48.59;97158.13;5054218;28;19951;-78
2022/05/26 09:37:00;;;;;;;;;;;;;;;18.67;48.22;97158.38;5054248;28;20411;-77
2022/05/26 09:39:30;;;;;;;;;;;;;;;18.65;48.93;97165.00;5053423;28;19960;-77
2022/05/26 09:41:57;;;;;;;;;;;;;;;18.55;47.25;97149.75;5054453;28;19958;-77
2022/05/26 09:44:27;;;;;;;;;;;;;;;18.51;48.32;97161.94;5053917;28;19951;-77
2022/05/26 09:46:55;;;;;;;;;;;;;;;18.49;47.89;97163.25;5053945;28;19958;-77
2022/05/26 09:49:23;;;;;;;;;;;;;;;18.50;49.06;97167.50;5053870;28;19962;-77
2022/05/26 09:51:49;;;;;;;;;;;;;;;18.54;48.25;97164.09;5053868;28;19950;-77
2022/05/26 09:54:29;;;;;;;;;;;;;;;18.59;47.57;97158.84;5053873;28;20308;-77
2022/05/26 09:56:55;;;;;;;;;;;;;;;18.65;47.82;97167.66;5053956;28;19952;-77
2022/05/26 09:59:30;;;;;;;;;;;;;;;18.62;49.29;97168.94;5053907;28;19959;-78
2022/05/26 10:02:01;;;;;;;;;;;;;;;18.63;48.23;97167.09;5053974;28;19952;-77
2022/05/26 10:04:41;;;;;;;;;;;;;;;18.62;48.38;97166.28;5053999;28;19954;-77
2022/05/26 10:07:22;;;;;;;;;;;;;;;18.60;48.07;97163.06;5054003;28;20020;-77
2022/05/26 10:09:54;;;;;;;;;;;;;;;18.66;48.26;97172.69;5053439;28;19970;-77
2022/05/26 10:12:36;;;;;;;;;;;;;;;18.69;48.30;97170.59;5053714;28;20339;-77
2022/05/26 10:15:10;;;;;;;;;;;;;;;18.73;48.25;97166.38;5053700;28;19961;-77
2022/05/26 10:17:45;;;;;;;;;;;;;;;18.76;49.13;97171.22;5053667;28;19951;-78
2022/05/26 10:20:14;;;;;;;;;;;;;;;18.78;48.52;97175.25;5053748;28;19954;-77
2022/05/26 10:22:47;;;;;;;;;;;;;;;18.74;48.11;97166.13;5053447;28;20325;-77
2022/05/26 10:25:29;;;;;;;;;;;;;;;18.69;48.46;97171.41;5036191;28;19960;-77
2022/05/26 10:27:58;;;;;;;;;;;;;;;18.63;47.66;97177.72;5039050;28;19946;-77
2022/05/26 10:30:30;;;;;;;;;;;;;;;18.60;48.39;97175.56;5053410;28;19966;-77
2022/05/26 10:33:21;;;;;;;;;;;;;;;18.55;49.09;97178.97;5044806;28;20330;-77
2022/05/26 10:35:56;;;;;;;;;;;;;;;18.46;48.77;97175.97;5039566;28;20314;-77
2022/05/26 10:38:26;;;;;;;;;;;;;;;18.41;49.03;97173.25;5053372;28;19960;-77
2022/05/26 10:41:05;;;;;;;;;;;;;;;18.36;49.21;97172.41;5053245;28;19962;-77
2022/05/26 10:43:41;;;;;;;;;;;;;;;18.31;48.46;97164.38;5053669;28;19946;-77
2022/05/26 10:46:09;;;;;;;;;;;;;;;18.32;49.35;97182.72;5053498;28;20424;-77
2022/05/26 10:48:38;;;;;;;;;;;;;;;18.32;49.56;97180.06;5053193;28;19953;-77
2022/05/26 10:51:05;;;;;;;;;;;;;;;18.26;49.19;97176.56;5053278;28;19951;-77
2022/05/26 10:53:47;;;;;;;;;;;;;;;18.23;49.43;97178.91;5053362;28;19959;-77
2022/05/26 10:56:30;;;;;;;;;;;;;;;18.17;50.12;97180.72;5053215;28;20293;-77
2022/05/26 10:59:16;;;;;;;;;;;;;;;18.08;49.08;97176.06;5052931;28;19957;-77
2022/05/26 11:01:45;;;;;;;;;;;;;;;18.01;49.48;97179.72;5052740;28;19958;-78
2022/05/26 11:04:25;;;;;;;;;;;;;;;17.97;50.04;97191.06;5052979;28;19957;-77
2022/05/26 11:06:54;;;;;;;;;;;;;;;17.95;49.62;97179.91;5053237;28;20413;-77
2022/05/26 11:09:26;;;;;;;;;;;;;;;17.92;49.93;97197.13;5052982;28;19963;-77
2022/05/26 11:11:57;;;;;;;;;;;;;;;17.83;49.26;97175.53;5052806;28;20477;-77
2022/05/26 11:17:23;;;;;;;;;;;;;;;17.72;50.49;97194.97;5053154;28;20016;-77
2022/05/26 11:20:01;;;;;;;;;;;;;;;17.71;50.87;97197.88;5052916;28;19957;-77
2022/05/26 11:22:27;;;;;;;;;;;;;;;17.69;50.61;97195.47;5052925;28;19957;-78
2022/05/26 11:24:56;;;;;;;;;;;;;;;17.65;50.60;97189.84;5053209;28;19961;-77
2022/05/26 11:27:50;;;;;;;;;;;;;;;17.62;50.93;97194.84;4998260;28;19955;-77
2022/05/26 11:36:17;;;;;;;;;;;;;;;17.84;50.90;97190.38;5052935;28;19947;-77
2022/05/26 11:38:45;;;;;;;;;;;;;;;17.97;51.40;97188.41;5052670;28;19970;-78
2022/05/26 11:41:14;;;;;;;;;;;;;;;18.02;50.53;97191.16;5052808;28;19957;-78
2022/05/26 11:43:57;;;;;;;;;;;;;;;18.07;50.40;97183.25;5053386;28;19966;-77
2022/05/26 11:46:41;;;;;;;;;;;;;;;18.09;50.15;97183.78;5056247;28;19956;-77
2022/05/26 11:49:09;;;;;;;;;;;;;;;18.13;49.34;97174.28;5056116;28;20330;-77
2022/05/26 11:51:41;;;;;;;;;;;;;;;18.16;50.35;97184.41;5056311;28;19954;-78
2022/05/26 11:54:09;;;;;;;;;;;;;;;18.19;49.11;97172.50;5056228;28;19995;-77
2022/05/26 11:56:36;;;;;;;;;;;;;;;18.20;50.27;97187.38;5056030;28;19945;-77
2022/05/26 11:59:17;;;;;;;;;;;;;;;18.25;49.78;97179.47;5056073;28;19950;-77
2022/05/26 12:01:47;;;;;;;;;;;;;;;18.28;49.91;97180.81;5054621;28;19959;-77
2022/05/26 12:04:16;;;;;;;;;;;;;;;18.33;49.80;97175.56;5055752;28;19970;-78
2022/05/26 12:06:51;;;;;;;;;;;;;;;18.43;49.90;97171.16;5056302;28;19956;-77
2022/05/26 12:09:21;;;;;;;;;;;;;;;18.52;50.40;97184.81;5055887;28;19962;-77
2022/05/26 12:11:53;;;;;;;;;;;;;;;18.55;48.89;97155.06;5055636;28;19955;-77
2022/05/26 12:14:28;;;;;;;;;;;;;;;18.57;50.00;97170.78;5055947;28;19976;-77
2022/05/26 12:17:14;;;;;;;;;;;;;;;18.56;50.08;97179.78;5055730;28;19961;-77
2022/05/26 12:19:43;;;;;;;;;;;;;;;18.62;49.36;97166.28;5055795;28;19960;-78
2022/05/26 12:22:13;;;;;;;;;;;;;;;18.68;49.73;97172.47;5055960;28;19967;-78
2022/05/26 12:24:39;;;;;;;;;;;;;;;18.71;48.93;97160.50;5055617;28;19952;-78
2022/05/26 12:27:05;;;;;;;;;;;;;;;18.75;50.04;97167.75;5055731;28;19984;-77
2022/05/26 12:29:46;;;;;;;;;;;;;;;18.82;49.93;97171.03;5055045;28;19978;-77
2022/05/26 12:32:19;;;;;;;;;;;;;;;18.91;49.57;97170.56;5039767;28;19949;-77
2022/05/26 12:35:03;;;;;;;;;;;;;;;18.96;49.85;97168.75;5055455;28;20322;-78
2022/05/26 12:37:47;;;;;;;;;;;;;;;19.04;48.73;97154.97;5055184;28;19951;-78
2022/05/26 12:40:13;;;;;;;;;;;;;;;19.10;48.25;97158.47;5055771;28;19955;-78
2022/05/26 12:42:47;;;;;;;;;;;;;;;19.19;48.46;97159.63;5055273;28;19986;-78
2022/05/26 12:45:40;;;;;;;;;;;;;;;19.32;48.57;97161.03;5055665;28;19969;-78
2022/05/26 12:48:09;;;;;;;;;;;;;;;19.43;46.94;97149.38;5052073;28;20422;-78
2022/05/26 12:50:40;;;;;;;;;;;;;;;19.48;46.69;97146.75;5055262;28;19973;-77
2022/05/26 12:53:12;;;;;;;;;;;;;;;19.44;47.08;97151.00;5054995;28;19947;-78
2022/05/26 12:55:43;;;;;;;;;;;;;;;19.36;46.77;97151.50;5054859;28;19981;-77
2022/05/26 12:58:18;;;;;;;;;;;;;;;19.27;46.84;97155.66;5055268;28;20412;-77
2022/05/26 13:00:45;;;;;;;;;;;;;;;19.11;47.63;97162.75;5054794;28;19967;-77
2022/05/26 13:03:40;;;;;;;;;;;;;;;18.98;48.24;97156.00;5035898;28;19965;-77
2022/05/26 13:06:30;;;;;;;;;;;;;;;18.90;47.64;97155.66;5013296;28;19959;-77
2022/05/26 13:09:06;;;;;;;;;;;;;;;18.85;48.39;97169.72;5012755;28;19952;-77
2022/05/26 13:11:34;;;;;;;;;;;;;;;18.86;48.50;97164.16;5033447;28;19982;-78
2022/05/26 13:14:07;;;;;;;;;;;;;;;18.92;49.07;97170.31;5054811;28;20450;-77
2022/05/26 13:16:38;;;;;;;;;;;;;;;18.99;48.81;97167.44;5039895;28;19964;-78
2022/05/26 13:19:21;;;;;;;;;;;;;;;19.02;48.29;97166.91;5054616;28;19946;-78
2022/05/26 13:21:51;;;;;;;;;;;;;;;19.02;47.78;97156.28;5054667;28;19956;-77
2022/05/26 13:24:19;;;;;;;;;;;;;;;19.00;48.67;97161.06;5054503;28;20449;-77
2022/05/26 13:26:46;;;;;;;;;;;;;;;19.04;49.87;97175.44;5054308;28;20409;-77
2022/05/26 13:29:14;;;;;;;;;;;;;;;19.08;48.59;97165.91;5054343;28;20338;-77
2022/05/26 13:34:28;;;;;;;;;;;;;;;19.22;49.49;97156.44;5054251;28;19952;-77
2022/05/26 13:36:55;;;;;;;;;;;;;;;19.28;49.08;97157.28;5054788;28;19953;-78
2022/05/26 13:39:23;;;;;;;;;;;;;;;19.34;48.12;97147.47;5054297;28;19978;-77
2022/05/26 13:41:51;;;;;;;;;;;;;;;19.35;48.60;97149.06;5054299;28;19962;-78
2022/05/26 13:44:26;;;;;;;;;;;;;;;19.37;49.16;97149.63;5054148;28;19966;-78